createdAt,value
2022-09-09T00:00:00.184Z,88
2022-09-09T00:05:00.162Z,88.6
2022-09-09T00:10:00.174Z,88.6
2022-09-09T00:15:00.169Z,88.6
2022-09-09T00:20:00.169Z,88.6
2022-09-09T00:25:00.162Z,88.5
2022-09-09T00:30:00.181Z,88.9
2022-09-09T00:35:00.164Z,89.2
2022-09-09T00:40:00.257Z,89.2
2022-09-09T00:45:00.173Z,88.5
2022-09-09T00:50:01.371Z,89.2
2022-09-09T00:55:00.165Z,89.8
2022-09-09T01:00:00.203Z,89.8
2022-09-09T01:05:00.156Z,89.5
2022-09-09T01:10:00.167Z,89.9
2022-09-09T01:15:00.155Z,88.9
2022-09-09T01:20:00.162Z,89.6
2022-09-09T01:25:00.160Z,89.9
2022-09-09T01:30:00.181Z,89.9
2022-09-09T01:35:00.164Z,90.2
2022-09-09T01:40:00.356Z,90.2
2022-09-09T01:45:00.178Z,90.3
2022-09-09T01:50:00.183Z,91.2
2022-09-09T01:55:00.168Z,90.6
2022-09-09T02:00:00.177Z,91.6
2022-09-09T02:05:00.483Z,91.9
2022-09-09T02:10:00.242Z,91.9
2022-09-09T02:15:00.138Z,91.3
2022-09-09T02:20:00.173Z,92
2022-09-09T02:25:00.174Z,92.3
2022-09-09T02:30:00.174Z,92.4
2022-09-09T02:35:00.158Z,92.4
2022-09-09T02:40:00.282Z,92.1
2022-09-09T02:45:00.185Z,90.9
2022-09-09T02:50:00.168Z,91.5
2022-09-09T02:55:00.184Z,90.6
2022-09-09T03:00:00.191Z,90.9
2022-09-09T03:05:00.155Z,90.9
2022-09-09T03:10:00.179Z,91.5
2022-09-09T03:15:00.266Z,90.9
2022-09-09T03:20:00.154Z,89.6
2022-09-09T03:25:00.164Z,89.7
2022-09-09T03:30:00.167Z,90
2022-09-09T03:35:00.214Z,87.8
2022-09-09T03:40:00.277Z,88.4
2022-09-09T03:45:00.153Z,89
2022-09-09T03:50:00.191Z,89
2022-09-09T03:55:00.338Z,89
2022-09-09T04:00:00.194Z,89
2022-09-09T04:05:00.240Z,88.7
2022-09-09T04:10:00.171Z,89
2022-09-09T04:15:00.172Z,88.7
2022-09-09T04:20:00.172Z,89.3
2022-09-09T04:25:00.155Z,89
2022-09-09T04:30:00.174Z,89
2022-09-09T04:35:00.167Z,89
2022-09-09T04:40:00.333Z,88.7
2022-09-09T04:45:00.164Z,89
2022-09-09T04:50:00.163Z,89.3
2022-09-09T04:55:00.176Z,89.3
2022-09-09T05:00:00.161Z,89.9
2022-09-09T05:05:00.159Z,89.9
2022-09-09T05:10:00.170Z,89.9
2022-09-09T05:15:00.164Z,89.6
2022-09-09T05:20:00.182Z,89.9
2022-09-09T05:25:00.166Z,89.6
2022-09-09T05:30:00.192Z,89.6
2022-09-09T05:35:00.286Z,90.3
2022-09-09T05:40:00.339Z,90.6
2022-09-09T05:45:00.214Z,90.9
2022-09-09T05:50:00.183Z,91.2
2022-09-09T05:55:00.181Z,91.3
2022-09-09T06:00:00.174Z,91.6
2022-09-09T06:05:00.831Z,91.6
2022-09-09T06:10:00.173Z,91.9
2022-09-09T06:15:00.160Z,91.3
2022-09-09T06:20:00.183Z,90.4
2022-09-09T06:30:00.397Z,90.4
2022-09-09T06:35:00.160Z,90.1
2022-09-09T06:40:00.359Z,89.9
2022-09-09T06:45:00.174Z,89.5
2022-09-09T06:50:00.703Z,89.6
2022-09-09T06:55:00.158Z,88.6
2022-09-09T07:00:00.350Z,88.7
2022-09-09T07:05:00.213Z,88.6
2022-09-09T07:10:00.170Z,89.3
2022-09-09T07:15:00.178Z,88.9
2022-09-09T07:20:00.172Z,89.9
2022-09-09T07:25:00.170Z,89.6
2022-09-09T07:30:00.254Z,89
2022-09-09T07:35:00.158Z,88.8
2022-09-09T07:40:00.340Z,88.2
2022-09-09T07:45:00.168Z,87.6
2022-09-09T07:50:00.176Z,88.2
2022-09-09T07:55:01.474Z,87.6
2022-09-09T08:00:00.174Z,87.4
2022-09-09T08:05:00.166Z,85.9
2022-09-09T08:10:00.519Z,83.1
2022-09-09T08:15:00.224Z,81.8
2022-09-09T08:20:00.171Z,82.1
2022-09-09T08:25:00.159Z,80.8
2022-09-09T08:30:00.182Z,80.3
2022-09-09T08:35:01.529Z,80.3
2022-09-09T08:40:00.342Z,79
2022-09-09T08:45:00.154Z,79
2022-09-09T08:50:00.174Z,79.4
2022-09-09T08:55:00.174Z,79.1
2022-09-09T09:00:00.179Z,77.2
2022-09-09T09:05:00.319Z,77.8
2022-09-09T09:10:00.205Z,77.1
2022-09-09T09:15:00.166Z,76.9
2022-09-09T09:20:00.182Z,72.2
2022-09-09T09:25:00.157Z,71.6
2022-09-09T09:30:28.528Z,71.6
2022-09-09T09:35:00.183Z,69.7
2022-09-09T09:40:03.453Z,69.7
2022-09-09T09:45:00.197Z,67.7
2022-09-09T09:50:00.187Z,70.5
2022-09-09T09:55:02.893Z,69.6
2022-09-09T10:00:00.167Z,70.2
2022-09-09T10:05:00.293Z,69.9
2022-09-09T10:10:00.232Z,67.1
2022-09-09T10:15:00.163Z,64.6
2022-09-09T10:20:00.293Z,65.6
2022-09-09T10:25:00.171Z,60.1
2022-09-09T10:30:00.239Z,62
2022-09-09T10:35:00.261Z,61.4
2022-09-09T10:40:00.322Z,58.1
2022-09-09T10:45:01.150Z,58.7
2022-09-09T10:50:00.242Z,60.6
2022-09-09T10:55:00.246Z,57.1
2022-09-09T11:00:00.273Z,56.8
2022-09-09T11:05:00.248Z,57.7
2022-09-09T11:10:00.435Z,59.3
2022-09-09T11:15:00.525Z,59.3
2022-09-09T11:20:00.163Z,58.1
2022-09-09T11:25:00.202Z,57.4
2022-09-09T11:30:00.208Z,58.7
2022-09-09T11:35:00.165Z,56.8
2022-09-09T11:40:00.346Z,58.2
2022-09-09T11:45:00.166Z,58.9
2022-09-09T11:50:00.173Z,58.9
2022-09-09T11:55:00.260Z,59.6
2022-09-09T12:00:00.224Z,55.4
2022-09-09T12:05:00.285Z,56.4
2022-09-09T12:10:00.293Z,57.6
2022-09-09T12:15:00.258Z,57.2
2022-09-09T12:20:00.182Z,58.5
2022-09-09T12:25:00.179Z,55.6
2022-09-09T12:30:00.201Z,56.2
2022-09-09T12:35:00.187Z,57.8
2022-09-09T12:40:00.324Z,57.5
2022-09-09T12:45:00.171Z,53
2022-09-09T12:50:00.187Z,54.3
2022-09-09T12:55:00.164Z,51.5
2022-09-09T13:00:00.181Z,51.8
2022-09-09T13:05:00.545Z,51.9
2022-09-09T13:10:00.194Z,49.4
2022-09-09T13:15:00.178Z,47.8
2022-09-09T13:20:00.186Z,46.8
2022-09-09T13:25:00.173Z,44.3
2022-09-09T13:30:00.235Z,44.3
2022-09-09T13:35:00.188Z,45.2
2022-09-09T13:40:00.514Z,44.9
2022-09-09T13:45:00.179Z,48.1
2022-09-09T13:50:00.419Z,47.4
2022-09-09T13:55:00.186Z,46.5
2022-09-09T14:00:06.098Z,44.5
2022-09-09T14:05:00.164Z,47.4
2022-09-09T14:10:00.238Z,45.4
2022-09-09T14:15:00.205Z,46.8
2022-09-09T14:20:00.296Z,46.8
2022-09-09T14:25:00.614Z,44.5
2022-09-09T14:30:00.178Z,45.5
2022-09-09T14:35:00.186Z,43.5
2022-09-09T14:40:00.350Z,42.9
2022-09-09T14:45:00.413Z,46.4
2022-09-09T14:50:00.174Z,45.5
2022-09-09T14:55:00.161Z,45.1
2022-09-09T15:00:00.184Z,46.1
2022-09-09T15:05:00.158Z,47.7
2022-09-09T15:10:00.188Z,49.3
2022-09-09T15:15:00.172Z,50.8
2022-09-09T15:20:00.166Z,51.8
2022-09-09T15:25:00.177Z,49.2
2022-09-09T15:30:00.200Z,50.5
2022-09-09T15:35:00.280Z,50.5
2022-09-09T15:40:00.299Z,49.5
2022-09-09T15:45:00.679Z,50.8
2022-09-09T15:50:00.186Z,48.5
2022-09-09T15:55:00.238Z,49.2
2022-09-09T16:00:00.180Z,50.8
2022-09-09T16:05:00.157Z,49.8
2022-09-09T16:10:00.181Z,52.4
2022-09-09T16:15:00.173Z,53.6
2022-09-09T16:20:00.180Z,52.3
2022-09-09T16:25:00.196Z,55.8
2022-09-09T16:30:00.175Z,58.7
2022-09-09T16:35:00.192Z,57.4
2022-09-09T16:40:00.337Z,59.3
2022-09-09T16:45:00.161Z,59.2
2022-09-09T16:50:00.185Z,60.5
2022-09-09T16:55:00.171Z,62.4
2022-09-09T17:00:00.339Z,62.4
2022-09-09T17:05:00.170Z,63
2022-09-09T17:10:00.182Z,62.7
2022-09-09T17:15:00.171Z,63.6
2022-09-09T17:20:00.197Z,64.8
2022-09-09T17:25:00.196Z,64.8
2022-09-09T17:30:00.162Z,65.8
2022-09-09T17:35:00.193Z,66.4
2022-09-09T17:40:00.309Z,67.4
2022-09-09T17:45:00.165Z,68
2022-09-09T17:50:00.179Z,69.6
2022-09-09T17:55:00.208Z,69.6
2022-09-09T18:00:00.202Z,67
2022-09-09T18:05:00.172Z,66
2022-09-09T18:10:00.176Z,64.1
2022-09-09T18:15:03.977Z,65.1
2022-09-09T18:20:00.287Z,65.1
2022-09-09T18:25:00.267Z,66.6
2022-09-09T18:30:00.204Z,66
2022-09-09T18:35:00.209Z,66.9
2022-09-09T18:40:00.282Z,67.2
2022-09-09T18:45:00.178Z,67.2
2022-09-09T18:50:00.162Z,68.8
2022-09-09T18:55:00.164Z,70.4
2022-09-09T19:00:00.185Z,70.9
2022-09-09T19:05:00.174Z,71.5
2022-09-09T19:10:00.196Z,72.8
2022-09-09T19:15:00.159Z,73.1
2022-09-09T19:20:00.152Z,74
2022-09-09T19:25:00.157Z,73.6
2022-09-09T19:30:00.187Z,74.3
2022-09-09T19:35:00.168Z,73.9
2022-09-09T19:40:00.268Z,73.3
2022-09-09T19:45:00.185Z,73.3
2022-09-09T19:50:00.184Z,72.6
2022-09-09T19:55:00.164Z,72.6
2022-09-09T20:00:00.162Z,72.3
2022-09-09T20:05:00.176Z,72.7
2022-09-09T20:10:00.197Z,72.6
2022-09-09T20:15:00.163Z,73.3
2022-09-09T20:20:00.163Z,73.3
2022-09-09T20:25:00.155Z,73.3
2022-09-09T20:30:00.174Z,73.9
2022-09-09T20:35:00.155Z,74.5
2022-09-09T20:40:00.218Z,74.5
2022-09-09T20:45:00.179Z,75.1
2022-09-09T20:50:00.177Z,75.1
2022-09-09T20:55:00.161Z,75.1
2022-09-09T21:00:00.163Z,75.1
2022-09-09T21:05:00.167Z,75.4
2022-09-09T21:10:00.204Z,75.1
2022-09-09T21:15:00.163Z,75.1
2022-09-09T21:20:00.197Z,75.1
2022-09-09T21:25:00.178Z,75.1
2022-09-09T21:30:00.172Z,75.7
2022-09-09T21:35:00.387Z,77.6
2022-09-09T21:40:00.382Z,77.6
2022-09-09T21:45:00.174Z,78.2
2022-09-09T21:50:00.206Z,78.2
2022-09-09T21:55:00.169Z,78.2
2022-09-09T22:00:00.191Z,77.6
2022-09-09T22:05:00.179Z,78.2
2022-09-09T22:10:00.159Z,78.2
2022-09-09T22:15:00.160Z,78.2
2022-09-09T22:20:00.160Z,78.2
2022-09-09T22:25:00.164Z,78.8
2022-09-09T22:30:00.165Z,79.4
2022-09-09T22:35:00.170Z,80
2022-09-09T22:40:00.176Z,79.7
2022-09-09T22:45:00.182Z,79.7
2022-09-09T22:50:00.175Z,80
2022-09-09T22:55:00.179Z,79.9
2022-09-09T23:00:00.174Z,80.5
2022-09-09T23:05:00.155Z,80.5
2022-09-09T23:10:00.259Z,80.5
2022-09-09T23:15:00.484Z,80.5
2022-09-09T23:20:00.305Z,80.5
2022-09-09T23:25:00.191Z,81.1
2022-09-09T23:30:00.172Z,81.1
2022-09-09T23:35:00.190Z,81.4
2022-09-09T23:40:00.250Z,81.7
2022-09-09T23:45:00.169Z,82.3
2022-09-09T23:50:00.201Z,82.6
2022-09-09T23:55:00.178Z,83.5
